sensor_id;sensor_type;location;lat;lon;timestamp;temperature;humidity
3310;DHT22;1667;53.238;10.394;2024-01-06T00:04:38;5.20;99.90
3310;DHT22;1667;53.238;10.394;2024-01-06T00:09:37;5.20;99.90
3310;DHT22;1667;53.238;10.394;2024-01-06T00:14:36;5.20;99.90
3310;DHT22;1667;53.238;10.394;2024-01-06T00:19:36;5.60;99.90
3310;DHT22;1667;53.238;10.394;2024-01-06T00:24:36;5.30;99.90
3310;DHT22;1667;53.238;10.394;2024-01-06T00:29:35;5.20;99.90
3310;DHT22;1667;53.238;10.394;2024-01-06T00:34:35;5.10;99.90
3310;DHT22;1667;53.238;10.394;2024-01-06T00:39:34;5.30;99.90
3310;DHT22;1667;53.238;10.394;2024-01-06T00:44:35;5.30;99.90
3310;DHT22;1667;53.238;10.394;2024-01-06T00:49:36;5.20;99.90
3310;DHT22;1667;53.238;10.394;2024-01-06T00:54:35;5.50;99.90
3310;DHT22;1667;53.238;10.394;2024-01-06T00:59:34;5.20;99.90
3310;DHT22;1667;53.238;10.394;2024-01-06T01:04:33;5.30;99.90
3310;DHT22;1667;53.238;10.394;2024-01-06T01:09:34;5.20;99.90
3310;DHT22;1667;53.238;10.394;2024-01-06T01:14:33;5.00;99.90
3310;DHT22;1667;53.238;10.394;2024-01-06T01:19:32;5.00;99.90
3310;DHT22;1667;53.238;10.394;2024-01-06T01:24:31;5.00;99.90
3310;DHT22;1667;53.238;10.394;2024-01-06T01:29:32;5.30;99.90
3310;DHT22;1667;53.238;10.394;2024-01-06T01:34:30;5.20;99.90
3310;DHT22;1667;53.238;10.394;2024-01-06T01:39:30;5.30;99.90
3310;DHT22;1667;53.238;10.394;2024-01-06T01:44:29;5.20;99.90
3310;DHT22;1667;53.238;10.394;2024-01-06T01:49:29;4.80;99.90
3310;DHT22;1667;53.238;10.394;2024-01-06T01:54:30;4.90;99.90
3310;DHT22;1667;53.238;10.394;2024-01-06T01:59:29;5.20;99.90
3310;DHT22;1667;53.238;10.394;2024-01-06T02:04:29;5.00;99.90
3310;DHT22;1667;53.238;10.394;2024-01-06T02:09:28;4.90;99.90
3310;DHT22;1667;53.238;10.394;2024-01-06T02:14:27;5.10;99.90
3310;DHT22;1667;53.238;10.394;2024-01-06T02:19:26;4.80;99.90
3310;DHT22;1667;53.238;10.394;2024-01-06T02:24:26;4.80;99.90
3310;DHT22;1667;53.238;10.394;2024-01-06T02:29:25;4.70;99.90
3310;DHT22;1667;53.238;10.394;2024-01-06T02:34:24;5.20;99.90
3310;DHT22;1667;53.238;10.394;2024-01-06T02:39:23;4.80;99.90
3310;DHT22;1667;53.238;10.394;2024-01-06T02:44:23;4.70;99.90
3310;DHT22;1667;53.238;10.394;2024-01-06T02:49:22;4.60;99.90
3310;DHT22;1667;53.238;10.394;2024-01-06T02:54:21;4.60;99.90
3310;DHT22;1667;53.238;10.394;2024-01-06T02:59:20;4.90;99.90
3310;DHT22;1667;53.238;10.394;2024-01-06T03:04:21;4.80;99.90
3310;DHT22;1667;53.238;10.394;2024-01-06T03:09:20;4.70;99.90
3310;DHT22;1667;53.238;10.394;2024-01-06T03:14:18;4.70;99.90
3310;DHT22;1667;53.238;10.394;2024-01-06T03:19:17;4.80;99.90
3310;DHT22;1667;53.238;10.394;2024-01-06T03:24:17;4.80;99.90
3310;DHT22;1667;53.238;10.394;2024-01-06T03:29:16;4.80;99.90
3310;DHT22;1667;53.238;10.394;2024-01-06T03:34:15;4.70;99.90
3310;DHT22;1667;53.238;10.394;2024-01-06T03:39:14;4.50;99.90
3310;DHT22;1667;53.238;10.394;2024-01-06T03:44:15;4.60;99.90
3310;DHT22;1667;53.238;10.394;2024-01-06T03:49:14;4.60;99.90
3310;DHT22;1667;53.238;10.394;2024-01-06T03:54:16;4.60;99.90
3310;DHT22;1667;53.238;10.394;2024-01-06T03:59:16;4.70;99.90
3310;DHT22;1667;53.238;10.394;2024-01-06T04:04:15;4.70;99.90
3310;DHT22;1667;53.238;10.394;2024-01-06T04:09:14;4.70;99.90
3310;DHT22;1667;53.238;10.394;2024-01-06T04:14:16;4.70;99.90
3310;DHT22;1667;53.238;10.394;2024-01-06T04:19:15;4.80;99.90
3310;DHT22;1667;53.238;10.394;2024-01-06T04:24:14;4.70;99.90
3310;DHT22;1667;53.238;10.394;2024-01-06T04:29:13;4.90;99.90
3310;DHT22;1667;53.238;10.394;2024-01-06T04:34:13;4.70;99.90
3310;DHT22;1667;53.238;10.394;2024-01-06T04:39:13;4.60;99.90
3310;DHT22;1667;53.238;10.394;2024-01-06T04:44:12;4.60;99.90
3310;DHT22;1667;53.238;10.394;2024-01-06T04:49:11;4.60;99.90
3310;DHT22;1667;53.238;10.394;2024-01-06T04:54:11;4.50;99.90
3310;DHT22;1667;53.238;10.394;2024-01-06T04:59:10;4.50;99.90
3310;DHT22;1667;53.238;10.394;2024-01-06T05:04:09;4.50;99.90
3310;DHT22;1667;53.238;10.394;2024-01-06T05:09:08;4.50;99.90
3310;DHT22;1667;53.238;10.394;2024-01-06T05:14:08;4.80;99.90
3310;DHT22;1667;53.238;10.394;2024-01-06T05:19:06;4.50;99.90
3310;DHT22;1667;53.238;10.394;2024-01-06T05:24:06;4.60;99.90
3310;DHT22;1667;53.238;10.394;2024-01-06T05:29:05;4.60;99.90
3310;DHT22;1667;53.238;10.394;2024-01-06T05:34:06;4.60;99.90
3310;DHT22;1667;53.238;10.394;2024-01-06T05:39:06;4.60;99.90
3310;DHT22;1667;53.238;10.394;2024-01-06T05:44:06;4.70;99.90
3310;DHT22;1667;53.238;10.394;2024-01-06T05:49:06;4.60;99.90
3310;DHT22;1667;53.238;10.394;2024-01-06T05:54:06;4.70;99.90
3310;DHT22;1667;53.238;10.394;2024-01-06T05:59:05;5.10;99.90
3310;DHT22;1667;53.238;10.394;2024-01-06T06:04:05;4.80;99.90
3310;DHT22;1667;53.238;10.394;2024-01-06T06:09:04;4.90;99.90
3310;DHT22;1667;53.238;10.394;2024-01-06T06:14:04;4.90;99.90
3310;DHT22;1667;53.238;10.394;2024-01-06T06:19:03;4.70;99.90
3310;DHT22;1667;53.238;10.394;2024-01-06T06:24:04;4.80;99.90
3310;DHT22;1667;53.238;10.394;2024-01-06T06:29:03;4.60;99.90
3310;DHT22;1667;53.238;10.394;2024-01-06T06:34:02;4.80;99.90
3310;DHT22;1667;53.238;10.394;2024-01-06T06:39:06;4.50;99.90
3310;DHT22;1667;53.238;10.394;2024-01-06T06:44:06;4.50;99.90
3310;DHT22;1667;53.238;10.394;2024-01-06T06:49:05;4.50;99.90
3310;DHT22;1667;53.238;10.394;2024-01-06T06:54:05;4.70;99.90
3310;DHT22;1667;53.238;10.394;2024-01-06T06:59:04;4.50;99.90
3310;DHT22;1667;53.238;10.394;2024-01-06T07:04:04;4.50;99.90
3310;DHT22;1667;53.238;10.394;2024-01-06T07:09:03;4.60;99.90
3310;DHT22;1667;53.238;10.394;2024-01-06T07:14:04;4.70;99.90
3310;DHT22;1667;53.238;10.394;2024-01-06T07:19:03;4.20;99.90
3310;DHT22;1667;53.238;10.394;2024-01-06T07:24:04;4.50;99.90
3310;DHT22;1667;53.238;10.394;2024-01-06T07:29:04;4.30;99.90
3310;DHT22;1667;53.238;10.394;2024-01-06T07:34:04;4.50;99.90
3310;DHT22;1667;53.238;10.394;2024-01-06T07:39:03;4.70;99.90
3310;DHT22;1667;53.238;10.394;2024-01-06T07:44:04;4.60;99.90
3310;DHT22;1667;53.238;10.394;2024-01-06T07:49:03;4.70;99.90
3310;DHT22;1667;53.238;10.394;2024-01-06T07:54:03;4.70;99.90
3310;DHT22;1667;53.238;10.394;2024-01-06T07:59:05;4.40;99.90
3310;DHT22;1667;53.238;10.394;2024-01-06T08:04:04;4.30;99.90
3310;DHT22;1667;53.238;10.394;2024-01-06T08:09:03;4.00;99.90
3310;DHT22;1667;53.238;10.394;2024-01-06T08:14:02;4.10;99.90
3310;DHT22;1667;53.238;10.394;2024-01-06T08:19:02;4.10;99.90
3310;DHT22;1667;53.238;10.394;2024-01-06T08:24:02;4.10;99.90
3310;DHT22;1667;53.238;10.394;2024-01-06T08:29:01;4.20;99.90
3310;DHT22;1667;53.238;10.394;2024-01-06T08:34:01;4.30;99.90
3310;DHT22;1667;53.238;10.394;2024-01-06T08:39:01;4.40;99.90
3310;DHT22;1667;53.238;10.394;2024-01-06T08:44:24;4.30;99.90
3310;DHT22;1667;53.238;10.394;2024-01-06T08:49:24;4.30;99.90
3310;DHT22;1667;53.238;10.394;2024-01-06T08:54:23;4.00;99.90
3310;DHT22;1667;53.238;10.394;2024-01-06T08:59:22;4.10;99.90
3310;DHT22;1667;53.238;10.394;2024-01-06T09:04:21;4.20;99.90
3310;DHT22;1667;53.238;10.394;2024-01-06T09:09:21;4.20;99.90
3310;DHT22;1667;53.238;10.394;2024-01-06T09:14:21;4.10;99.90
3310;DHT22;1667;53.238;10.394;2024-01-06T09:19:20;4.20;99.90
3310;DHT22;1667;53.238;10.394;2024-01-06T09:24:39;4.70;99.90
3310;DHT22;1667;53.238;10.394;2024-01-06T09:29:38;4.20;99.90
3310;DHT22;1667;53.238;10.394;2024-01-06T09:34:37;4.30;99.90
3310;DHT22;1667;53.238;10.394;2024-01-06T09:39:36;4.50;99.90
3310;DHT22;1667;53.238;10.394;2024-01-06T09:44:38;4.30;99.90
3310;DHT22;1667;53.238;10.394;2024-01-06T09:49:38;4.50;99.90
3310;DHT22;1667;53.238;10.394;2024-01-06T09:54:43;4.70;99.90
3310;DHT22;1667;53.238;10.394;2024-01-06T09:59:46;4.60;99.90
3310;DHT22;1667;53.238;10.394;2024-01-06T10:04:45;4.60;99.90
3310;DHT22;1667;53.238;10.394;2024-01-06T10:09:44;4.60;99.90
3310;DHT22;1667;53.238;10.394;2024-01-06T10:14:45;4.50;99.90
3310;DHT22;1667;53.238;10.394;2024-01-06T10:19:45;4.40;99.90
3310;DHT22;1667;53.238;10.394;2024-01-06T10:24:46;4.60;99.90
3310;DHT22;1667;53.238;10.394;2024-01-06T10:29:46;4.60;99.90
3310;DHT22;1667;53.238;10.394;2024-01-06T10:34:45;4.50;99.90
3310;DHT22;1667;53.238;10.394;2024-01-06T10:39:45;4.50;99.90
3310;DHT22;1667;53.238;10.394;2024-01-06T10:44:47;4.40;99.90
3310;DHT22;1667;53.238;10.394;2024-01-06T10:49:46;4.70;99.90
3310;DHT22;1667;53.238;10.394;2024-01-06T10:54:54;4.80;99.90
3310;DHT22;1667;53.238;10.394;2024-01-06T10:59:56;4.20;99.90
3310;DHT22;1667;53.238;10.394;2024-01-06T11:04:56;4.60;99.90
3310;DHT22;1667;53.238;10.394;2024-01-06T11:09:58;4.40;99.90
3310;DHT22;1667;53.238;10.394;2024-01-06T11:14:59;4.50;99.90
3310;DHT22;1667;53.238;10.394;2024-01-06T11:20:05;4.80;99.90
3310;DHT22;1667;53.238;10.394;2024-01-06T11:25:05;4.50;99.90
3310;DHT22;1667;53.238;10.394;2024-01-06T11:30:07;4.40;99.90
3310;DHT22;1667;53.238;10.394;2024-01-06T11:35:13;4.50;99.90
3310;DHT22;1667;53.238;10.394;2024-01-06T11:40:25;4.70;99.90
3310;DHT22;1667;53.238;10.394;2024-01-06T11:45:32;4.90;99.90
3310;DHT22;1667;53.238;10.394;2024-01-06T11:50:32;4.90;99.90
3310;DHT22;1667;53.238;10.394;2024-01-06T11:55:32;5.00;99.90
3310;DHT22;1667;53.238;10.394;2024-01-06T12:00:33;4.80;99.90
3310;DHT22;1667;53.238;10.394;2024-01-06T12:05:34;4.80;99.90
3310;DHT22;1667;53.238;10.394;2024-01-06T12:10:33;5.10;99.90
3310;DHT22;1667;53.238;10.394;2024-01-06T12:15:34;4.90;99.90
3310;DHT22;1667;53.238;10.394;2024-01-06T12:20:35;4.90;99.90
3310;DHT22;1667;53.238;10.394;2024-01-06T12:25:34;5.00;99.90
3310;DHT22;1667;53.238;10.394;2024-01-06T12:30:38;4.90;99.90
3310;DHT22;1667;53.238;10.394;2024-01-06T12:35:38;4.70;99.90
3310;DHT22;1667;53.238;10.394;2024-01-06T12:40:56;4.70;99.90
3310;DHT22;1667;53.238;10.394;2024-01-06T12:45:55;4.70;99.90
3310;DHT22;1667;53.238;10.394;2024-01-06T12:50:55;4.50;99.90
3310;DHT22;1667;53.238;10.394;2024-01-06T12:55:55;4.30;99.90
3310;DHT22;1667;53.238;10.394;2024-01-06T13:00:55;4.50;99.90
3310;DHT22;1667;53.238;10.394;2024-01-06T13:05:55;4.50;99.90
3310;DHT22;1667;53.238;10.394;2024-01-06T13:10:54;4.20;99.90
3310;DHT22;1667;53.238;10.394;2024-01-06T13:15:55;4.40;99.90
3310;DHT22;1667;53.238;10.394;2024-01-06T13:20:53;4.30;99.90
3310;DHT22;1667;53.238;10.394;2024-01-06T13:25:52;4.20;99.90
3310;DHT22;1667;53.238;10.394;2024-01-06T13:30:52;4.60;99.90
3310;DHT22;1667;53.238;10.394;2024-01-06T13:35:53;4.20;99.90
3310;DHT22;1667;53.238;10.394;2024-01-06T13:40:52;4.50;99.90
3310;DHT22;1667;53.238;10.394;2024-01-06T13:45:50;4.60;99.90
3310;DHT22;1667;53.238;10.394;2024-01-06T13:50:50;4.70;99.90
3310;DHT22;1667;53.238;10.394;2024-01-06T13:55:50;4.50;99.90
3310;DHT22;1667;53.238;10.394;2024-01-06T14:00:49;4.40;99.90
3310;DHT22;1667;53.238;10.394;2024-01-06T14:05:48;4.50;99.90
3310;DHT22;1667;53.238;10.394;2024-01-06T14:10:51;4.80;99.90
3310;DHT22;1667;53.238;10.394;2024-01-06T14:15:50;4.60;99.90
3310;DHT22;1667;53.238;10.394;2024-01-06T14:20:49;4.40;99.90
3310;DHT22;1667;53.238;10.394;2024-01-06T14:25:50;4.40;99.90
3310;DHT22;1667;53.238;10.394;2024-01-06T14:30:49;4.30;99.90
3310;DHT22;1667;53.238;10.394;2024-01-06T14:35:49;4.30;99.90
3310;DHT22;1667;53.238;10.394;2024-01-06T14:40:48;4.60;99.90
3310;DHT22;1667;53.238;10.394;2024-01-06T14:45:49;4.40;99.90
3310;DHT22;1667;53.238;10.394;2024-01-06T14:50:48;4.30;99.90
3310;DHT22;1667;53.238;10.394;2024-01-06T14:55:48;4.10;99.90
3310;DHT22;1667;53.238;10.394;2024-01-06T15:00:48;4.20;99.90
3310;DHT22;1667;53.238;10.394;2024-01-06T15:05:47;4.40;99.90
3310;DHT22;1667;53.238;10.394;2024-01-06T15:10:47;4.60;99.90
3310;DHT22;1667;53.238;10.394;2024-01-06T15:15:46;4.10;99.90
3310;DHT22;1667;53.238;10.394;2024-01-06T15:20:53;4.50;99.90
3310;DHT22;1667;53.238;10.394;2024-01-06T15:25:52;4.70;99.90
3310;DHT22;1667;53.238;10.394;2024-01-06T15:30:51;4.40;99.90
3310;DHT22;1667;53.238;10.394;2024-01-06T15:35:50;4.60;99.90
3310;DHT22;1667;53.238;10.394;2024-01-06T15:40:52;4.40;99.90
3310;DHT22;1667;53.238;10.394;2024-01-06T15:45:51;4.40;99.90
3310;DHT22;1667;53.238;10.394;2024-01-06T15:50:51;4.10;99.90
3310;DHT22;1667;53.238;10.394;2024-01-06T15:55:52;4.60;99.90
3310;DHT22;1667;53.238;10.394;2024-01-06T16:00:51;4.40;99.90
3310;DHT22;1667;53.238;10.394;2024-01-06T16:05:51;4.20;99.90
3310;DHT22;1667;53.238;10.394;2024-01-06T16:10:50;4.80;99.90
3310;DHT22;1667;53.238;10.394;2024-01-06T16:15:51;4.50;99.90
3310;DHT22;1667;53.238;10.394;2024-01-06T16:20:51;4.80;99.90
3310;DHT22;1667;53.238;10.394;2024-01-06T16:25:51;4.40;99.90
3310;DHT22;1667;53.238;10.394;2024-01-06T16:30:52;4.40;99.90
3310;DHT22;1667;53.238;10.394;2024-01-06T16:35:51;4.30;99.90
3310;DHT22;1667;53.238;10.394;2024-01-06T16:40:50;4.50;99.90
3310;DHT22;1667;53.238;10.394;2024-01-06T16:45:49;4.80;99.90
3310;DHT22;1667;53.238;10.394;2024-01-06T16:50:50;4.60;99.90
3310;DHT22;1667;53.238;10.394;2024-01-06T16:55:49;4.80;99.90
3310;DHT22;1667;53.238;10.394;2024-01-06T17:00:48;4.60;99.90
3310;DHT22;1667;53.238;10.394;2024-01-06T17:05:49;4.80;99.90
3310;DHT22;1667;53.238;10.394;2024-01-06T17:10:49;4.70;99.90
3310;DHT22;1667;53.238;10.394;2024-01-06T17:15:49;4.60;99.90
3310;DHT22;1667;53.238;10.394;2024-01-06T17:20:49;4.70;99.90
3310;DHT22;1667;53.238;10.394;2024-01-06T17:25:48;4.60;99.90
3310;DHT22;1667;53.238;10.394;2024-01-06T17:30:48;4.50;99.90
3310;DHT22;1667;53.238;10.394;2024-01-06T17:35:47;4.60;99.90
3310;DHT22;1667;53.238;10.394;2024-01-06T17:40:48;5.00;99.90
3310;DHT22;1667;53.238;10.394;2024-01-06T17:45:47;4.50;99.90
3310;DHT22;1667;53.238;10.394;2024-01-06T17:50:46;4.20;99.90
3310;DHT22;1667;53.238;10.394;2024-01-06T17:55:45;4.20;99.90
3310;DHT22;1667;53.238;10.394;2024-01-06T18:00:45;4.50;99.90
3310;DHT22;1667;53.238;10.394;2024-01-06T18:05:44;4.50;99.90
3310;DHT22;1667;53.238;10.394;2024-01-06T18:10:44;4.60;99.90
3310;DHT22;1667;53.238;10.394;2024-01-06T18:15:45;4.30;99.90
3310;DHT22;1667;53.238;10.394;2024-01-06T18:20:44;4.30;99.90
3310;DHT22;1667;53.238;10.394;2024-01-06T18:25:46;4.30;99.90
3310;DHT22;1667;53.238;10.394;2024-01-06T18:30:46;4.00;99.90
3310;DHT22;1667;53.238;10.394;2024-01-06T18:35:46;4.00;99.90
3310;DHT22;1667;53.238;10.394;2024-01-06T18:40:45;4.20;99.90
3310;DHT22;1667;53.238;10.394;2024-01-06T18:45:46;4.20;99.90
3310;DHT22;1667;53.238;10.394;2024-01-06T18:50:45;4.20;99.90
3310;DHT22;1667;53.238;10.394;2024-01-06T18:55:44;4.30;99.90
3310;DHT22;1667;53.238;10.394;2024-01-06T19:00:44;4.50;99.90
3310;DHT22;1667;53.238;10.394;2024-01-06T19:05:44;4.40;99.90
3310;DHT22;1667;53.238;10.394;2024-01-06T19:10:44;4.40;99.90
3310;DHT22;1667;53.238;10.394;2024-01-06T19:15:43;4.70;99.90
3310;DHT22;1667;53.238;10.394;2024-01-06T19:20:44;4.50;99.90
3310;DHT22;1667;53.238;10.394;2024-01-06T19:25:44;4.60;99.90
3310;DHT22;1667;53.238;10.394;2024-01-06T19:30:43;4.90;99.90
3310;DHT22;1667;53.238;10.394;2024-01-06T19:35:44;4.30;99.90
3310;DHT22;1667;53.238;10.394;2024-01-06T19:40:43;4.40;99.90
3310;DHT22;1667;53.238;10.394;2024-01-06T19:45:42;4.40;99.90
3310;DHT22;1667;53.238;10.394;2024-01-06T19:50:41;4.30;99.90
3310;DHT22;1667;53.238;10.394;2024-01-06T19:55:42;4.30;99.90
3310;DHT22;1667;53.238;10.394;2024-01-06T20:00:42;4.20;99.90
3310;DHT22;1667;53.238;10.394;2024-01-06T20:05:41;4.70;99.90
3310;DHT22;1667;53.238;10.394;2024-01-06T20:10:42;4.10;99.90
3310;DHT22;1667;53.238;10.394;2024-01-06T20:15:41;4.30;99.90
3310;DHT22;1667;53.238;10.394;2024-01-06T20:20:43;4.30;99.90
3310;DHT22;1667;53.238;10.394;2024-01-06T20:25:44;4.20;99.90
3310;DHT22;1667;53.238;10.394;2024-01-06T20:30:43;4.10;99.90
3310;DHT22;1667;53.238;10.394;2024-01-06T20:35:43;4.10;99.90
3310;DHT22;1667;53.238;10.394;2024-01-06T20:40:43;4.30;99.90
3310;DHT22;1667;53.238;10.394;2024-01-06T20:45:42;4.10;99.90
3310;DHT22;1667;53.238;10.394;2024-01-06T20:51:03;4.30;99.90
3310;DHT22;1667;53.238;10.394;2024-01-06T20:56:05;4.20;99.90
3310;DHT22;1667;53.238;10.394;2024-01-06T21:01:04;4.00;99.90
3310;DHT22;1667;53.238;10.394;2024-01-06T21:06:05;4.20;99.90
3310;DHT22;1667;53.238;10.394;2024-01-06T21:11:07;4.10;99.90
3310;DHT22;1667;53.238;10.394;2024-01-06T21:16:06;4.30;99.90
3310;DHT22;1667;53.238;10.394;2024-01-06T21:21:08;4.50;99.90
3310;DHT22;1667;53.238;10.394;2024-01-06T21:26:06;4.40;99.90
3310;DHT22;1667;53.238;10.394;2024-01-06T21:31:06;4.10;99.90
3310;DHT22;1667;53.238;10.394;2024-01-06T21:36:05;4.00;99.90
3310;DHT22;1667;53.238;10.394;2024-01-06T21:41:06;4.00;99.90
3310;DHT22;1667;53.238;10.394;2024-01-06T21:46:05;4.10;99.90
3310;DHT22;1667;53.238;10.394;2024-01-06T21:51:04;4.10;99.90
3310;DHT22;1667;53.238;10.394;2024-01-06T21:56:03;4.50;99.90
3310;DHT22;1667;53.238;10.394;2024-01-06T22:01:04;4.30;99.90
3310;DHT22;1667;53.238;10.394;2024-01-06T22:06:03;4.40;99.90
3310;DHT22;1667;53.238;10.394;2024-01-06T22:11:02;4.50;99.90
3310;DHT22;1667;53.238;10.394;2024-01-06T22:16:04;4.50;99.90
3310;DHT22;1667;53.238;10.394;2024-01-06T22:21:03;4.60;99.90
3310;DHT22;1667;53.238;10.394;2024-01-06T22:26:02;4.70;99.90
3310;DHT22;1667;53.238;10.394;2024-01-06T22:31:06;4.60;99.90
3310;DHT22;1667;53.238;10.394;2024-01-06T22:36:10;4.60;99.90
3310;DHT22;1667;53.238;10.394;2024-01-06T22:41:09;4.50;99.90
3310;DHT22;1667;53.238;10.394;2024-01-06T22:46:09;4.80;99.90
3310;DHT22;1667;53.238;10.394;2024-01-06T22:51:08;4.70;99.90
3310;DHT22;1667;53.238;10.394;2024-01-06T22:56:09;4.90;99.90
3310;DHT22;1667;53.238;10.394;2024-01-06T23:01:08;4.50;99.90
3310;DHT22;1667;53.238;10.394;2024-01-06T23:06:08;4.50;99.90
3310;DHT22;1667;53.238;10.394;2024-01-06T23:11:08;4.70;99.90
3310;DHT22;1667;53.238;10.394;2024-01-06T23:16:11;4.60;99.90
3310;DHT22;1667;53.238;10.394;2024-01-06T23:21:10;4.40;99.90
3310;DHT22;1667;53.238;10.394;2024-01-06T23:26:09;4.60;99.90
3310;DHT22;1667;53.238;10.394;2024-01-06T23:31:08;4.60;99.90
3310;DHT22;1667;53.238;10.394;2024-01-06T23:36:09;4.70;99.90
3310;DHT22;1667;53.238;10.394;2024-01-06T23:41:08;4.70;99.90
3310;DHT22;1667;53.238;10.394;2024-01-06T23:46:07;4.30;99.90
3310;DHT22;1667;53.238;10.394;2024-01-06T23:51:06;4.30;99.90
3310;DHT22;1667;53.238;10.394;2024-01-06T23:56:07;4.80;99.90
